Time;durP1;ratioP1;P1;durP2;ratioP2;P2;SDS_P1;SDS_P2;PMS_P1;PMS_P2;Temp;Humidity;BMP_temperature;BMP_pressure;BME280_temperature;BME280_humidity;BME280_pressure;Samples;Min_cycle;Max_cycle;Signal;HPM_P1;HPM_P2
2022/11/17 00:01:18;;;;;;;2.43;2.23;;;1.90;99.90;0.90;100045;;;;558032;253;24165;-77
2022/11/17 00:03:47;;;;;;;2.73;2.53;;;1.90;99.90;0.90;100044;;;;557795;253;24192;-78
2022/11/17 00:06:15;;;;;;;2.47;2.27;;;1.90;99.90;0.90;100041;;;;567360;249;24159;-78
2022/11/17 00:08:43;;;;;;;2.13;2.03;;;1.90;99.90;0.90;100047;;;;559576;253;24124;-76
2022/11/17 00:11:13;;;;;;;2.10;2.00;;;1.90;99.90;0.90;100043;;;;557623;253;24118;-78
2022/11/17 00:16:28;;;;;;;2.83;2.62;;;1.80;99.90;0.90;100032;;;;555277;253;35484;-80
2022/11/17 00:21:42;;;;;;;2.20;2.10;;;1.80;99.90;0.80;100019;;;;576520;248;24126;-79
2022/11/17 00:24:06;;;;;;;2.50;2.30;;;1.80;99.90;0.80;100008;;;;566997;249;24130;-77
2022/11/17 00:26:34;;;;;;;2.43;2.23;;;1.80;99.90;0.80;100027;;;;567642;249;24166;-77
2022/11/17 00:29:03;;;;;;;2.47;2.37;;;1.80;99.90;0.90;100027;;;;567411;249;24160;-78
2022/11/17 00:34:20;;;;;;;2.87;2.67;;;1.80;99.90;0.80;100013;;;;567609;249;24195;-77
2022/11/17 00:36:51;;;;;;;2.67;2.57;;;1.80;99.90;0.90;100025;;;;567907;249;24166;-78
2022/11/17 00:39:19;;;;;;;2.57;2.40;;;1.80;99.90;0.90;100024;;;;569050;248;24107;-77
2022/11/17 00:41:47;;;;;;;3.73;2.53;;;1.80;99.90;0.90;100019;;;;568582;248;24151;-76
2022/11/17 00:44:15;;;;;;;3.47;2.33;;;1.80;99.90;0.90;100026;;;;568524;249;24094;-76
2022/11/17 00:46:43;;;;;;;3.03;2.80;;;1.80;99.90;0.90;100027;;;;568165;249;24108;-77
2022/11/17 00:49:11;;;;;;;3.00;2.80;;;1.80;99.90;0.80;100020;;;;568109;249;24105;-77
2022/11/17 00:51:39;;;;;;;2.47;2.37;;;1.80;99.90;0.80;100028;;;;567956;249;24139;-77
2022/11/17 00:54:07;;;;;;;2.80;2.60;;;1.80;99.90;0.80;100031;;;;576739;247;24108;-77
2022/11/17 00:56:36;;;;;;;2.75;2.55;;;1.80;99.90;0.90;100036;;;;563143;249;35310;-76
2022/11/17 00:59:04;;;;;;;2.60;2.50;;;1.80;99.90;0.90;100037;;;;567594;249;24152;-76
2022/11/17 01:01:32;;;;;;;2.73;2.50;;;1.80;99.90;0.90;100035;;;;568147;249;24176;-77
2022/11/17 01:04:06;;;;;;;2.87;2.67;;;1.80;99.90;0.80;100025;;;;576769;247;24177;-80
2022/11/17 01:06:36;;;;;;;3.70;3.13;;;1.80;99.90;0.80;100029;;;;567541;249;24130;-79
2022/11/17 01:09:04;;;;;;;4.13;3.13;;;1.80;99.90;0.80;100020;;;;576288;247;24125;-77
2022/11/17 01:11:32;;;;;;;2.90;2.60;;;1.80;99.90;0.80;100027;;;;567732;249;24121;-76
2022/11/17 01:14:00;;;;;;;2.80;2.57;;;1.70;99.90;0.80;100012;;;;567670;249;24094;-79
2022/11/17 01:16:32;;;;;;;3.00;2.80;;;1.80;99.90;0.80;100015;;;;557710;253;24122;-80
2022/11/17 01:18:57;;;;;;;2.80;2.70;;;1.70;99.90;0.80;100018;;;;554808;253;35644;-81
2022/11/17 01:21:25;;;;;;;2.77;2.67;;;1.70;99.90;0.80;100030;;;;558287;253;24179;-80
2022/11/17 01:23:56;;;;;;;2.60;2.50;;;1.70;99.90;0.80;100020;;;;556375;254;24122;-75
2022/11/17 01:26:20;;;;;;;2.80;2.60;;;1.80;99.90;0.80;100016;;;;576211;249;24103;-79
2022/11/17 01:28:48;;;;;;;2.40;2.30;;;1.70;99.90;0.80;100036;;;;576597;249;25139;-81
2022/11/17 01:31:19;;;;;;;2.63;2.50;;;1.70;99.90;0.80;100013;;;;567893;249;24089;-77
2022/11/17 01:33:44;;;;;;;3.30;3.10;;;1.70;99.90;0.70;100013;;;;567111;249;24116;-80
2022/11/17 01:36:18;;;;;;;3.70;3.40;;;1.70;99.90;0.70;100006;;;;567851;249;24083;-79
2022/11/17 01:38:46;;;;;;;2.90;2.80;;;1.70;99.90;0.70;100011;;;;567391;249;24119;-79
2022/11/17 01:41:20;;;;;;;3.67;2.97;;;1.70;99.90;0.70;99988;;;;576304;247;24081;-83
2022/11/17 01:43:45;;;;;;;2.80;2.60;;;1.70;99.90;0.70;100005;;;;567426;249;24101;-76
2022/11/17 01:46:31;;;;;;;3.20;2.90;;;1.70;99.90;0.70;99996;;;;567255;249;24100;-76
2022/11/17 01:49:02;;;;;;;3.20;2.63;;;1.70;99.90;0.70;99996;;;;567580;247;24142;-77
2022/11/17 01:51:30;;;;;;;2.70;2.50;;;1.70;99.90;0.70;99999;;;;568591;248;24106;-79
2022/11/17 01:54:02;;;;;;;2.57;2.47;;;1.70;99.90;0.70;99997;;;;568209;249;24096;-78
2022/11/17 01:56:26;;;;;;;2.73;2.53;;;1.70;99.90;0.70;99990;;;;568007;249;24092;-77
2022/11/17 01:59:00;;;;;;;3.13;2.93;;;1.70;99.90;0.80;99994;;;;567564;249;24119;-76
2022/11/17 02:01:28;;;;;;;3.17;2.60;;;1.70;99.90;0.80;100001;;;;567636;249;24144;-78
2022/11/17 02:03:56;;;;;;;2.83;2.60;;;1.70;99.90;0.70;99997;;;;576575;247;24138;-76
2022/11/17 02:06:29;;;;;;;2.80;2.63;;;1.70;99.90;0.70;100001;;;;576479;247;24075;-79
2022/11/17 02:08:57;;;;;;;3.15;2.95;;;1.70;99.90;0.80;99989;;;;562955;249;35330;-76
2022/11/17 02:11:29;;;;;;;2.63;2.43;;;1.70;99.90;0.70;99984;;;;567921;249;24099;-76
2022/11/17 02:13:57;;;;;;;2.57;2.47;;;1.70;99.90;0.80;99987;;;;567156;249;24109;-81
2022/11/17 02:16:23;;;;;;;3.30;2.60;;;1.70;99.90;0.80;99987;;;;567413;249;24096;-81
2022/11/17 02:18:50;;;;;;;2.70;2.60;;;1.70;99.90;0.70;99980;;;;576344;247;26291;-75
2022/11/17 02:21:52;;;;;;;3.17;2.97;;;1.70;99.90;0.70;99975;;;;567686;249;24097;-78
2022/11/17 02:25:06;;;;;;;2.77;2.63;;;1.70;99.90;0.70;99983;;;;576620;246;24197;-81
2022/11/17 02:27:46;;;;;;;2.77;2.67;;;1.70;99.90;0.60;99975;;;;576305;248;24088;-80
2022/11/17 02:30:17;;;;;;;2.87;2.67;;;1.60;99.90;0.60;99971;;;;562347;249;35318;-84
2022/11/17 02:33:03;;;;;;;2.90;2.70;;;1.60;99.90;0.70;99980;;;;567369;249;24181;-82
2022/11/17 02:35:40;;;;;;;3.13;2.93;;;1.60;99.90;0.70;99971;;;;576085;246;24143;-81
2022/11/17 02:38:17;;;;;;;2.53;2.43;;;1.70;99.90;0.70;99975;;;;555165;249;24121;-80
2022/11/17 02:41:21;;;;;;;2.47;2.37;;;1.70;99.90;0.70;99964;;;;567360;249;24109;-78
2022/11/17 02:44:10;;;;;;;2.73;2.63;;;1.70;99.90;0.70;99975;;;;567267;249;24091;-77
2022/11/17 02:46:47;;;;;;;2.87;2.67;;;1.70;99.90;0.70;99974;;;;576032;249;24090;-78
2022/11/17 02:49:27;;;;;;;2.90;2.70;;;1.70;99.90;0.70;99968;;;;575935;248;24105;-77
2022/11/17 02:51:55;;;;;;;2.80;2.60;;;1.70;99.90;0.80;99970;;;;567319;249;24113;-78
2022/11/17 02:54:26;;;;;;;3.43;3.23;;;1.70;99.90;0.70;99962;;;;567332;249;24078;-75
2022/11/17 02:56:50;;;;;;;3.00;2.80;;;1.70;99.90;0.70;99969;;;;567022;249;24164;-78
2022/11/17 02:59:18;;;;;;;2.77;2.57;;;1.80;99.90;0.80;99963;;;;575970;247;24154;-76
2022/11/17 03:01:55;;;;;;;2.50;2.40;;;1.80;99.90;0.80;99966;;;;568230;248;24203;-77
2022/11/17 03:04:26;;;;;;;3.33;2.73;;;1.80;99.90;0.70;99960;;;;568476;248;24095;-77
2022/11/17 03:07:26;;;;;;;2.77;2.67;;;1.70;99.90;0.70;99967;;;;568138;249;24101;-81
2022/11/17 03:10:21;;;;;;;2.53;2.43;;;1.70;99.90;0.70;99964;;;;568025;249;24162;-77
2022/11/17 03:13:10;;;;;;;2.70;2.60;;;1.60;99.90;0.60;99965;;;;567223;249;24099;-78
2022/11/17 03:16:12;;;;;;;2.50;2.40;;;1.60;99.90;0.60;99968;;;;567092;249;24164;-79
2022/11/17 03:18:43;;;;;;;2.67;2.47;;;1.60;99.90;0.60;99964;;;;576243;249;24117;-77
2022/11/17 03:21:19;;;;;;;2.90;2.60;;;1.60;99.90;0.60;99964;;;;563545;249;24119;-77
2022/11/17 03:23:50;;;;;;;2.70;2.50;;;1.60;99.90;0.60;99958;;;;567479;249;24089;-78
2022/11/17 03:26:21;;;;;;;2.50;2.33;;;1.60;99.90;0.60;99970;;;;567582;249;24164;-77
2022/11/17 03:28:52;;;;;;;2.40;2.30;;;1.60;99.90;0.60;99957;;;;567455;249;24137;-77
2022/11/17 03:31:17;;;;;;;2.57;2.37;;;1.60;99.90;0.50;99950;;;;576267;249;24094;-76
2022/11/17 03:33:45;;;;;;;2.80;2.60;;;1.50;99.90;0.50;99946;;;;567873;249;24095;-77
2022/11/17 03:36:12;;;;;;;3.00;2.47;;;1.50;99.90;0.50;99959;;;;567706;249;24155;-78
2022/11/17 03:38:40;;;;;;;2.73;2.53;;;1.50;99.90;0.50;99950;;;;567605;249;24094;-77
2022/11/17 03:41:08;;;;;;;3.10;2.90;;;1.50;99.90;0.50;99941;;;;567429;249;24133;-77
2022/11/17 03:43:40;;;;;;;3.40;3.20;;;1.40;99.90;0.40;99950;;;;567659;249;24090;-78
2022/11/17 03:46:08;;;;;;;2.80;2.60;;;1.40;99.90;0.40;99940;;;;550782;254;35339;-77
2022/11/17 03:48:41;;;;;;;2.70;2.50;;;1.40;99.90;0.40;99947;;;;565970;249;24111;-78
2022/11/17 03:51:25;;;;;;;3.00;2.80;;;1.50;99.90;0.50;99949;;;;565501;249;24129;-76
2022/11/17 03:53:53;;;;;;;2.83;2.63;;;1.40;99.90;0.50;99942;;;;576358;247;24145;-77
2022/11/17 03:56:55;;;;;;;2.43;2.33;;;1.40;99.90;0.50;99941;;;;567680;249;24085;-76
2022/11/17 03:59:54;;;;;;;3.33;3.03;;;1.40;99.90;0.40;99945;;;;576294;247;24136;-77
2022/11/17 04:02:22;;;;;;;3.40;3.20;;;1.40;99.90;0.40;99930;;;;567682;249;24144;-76
2022/11/17 04:05:05;;;;;;;3.80;2.90;;;1.40;99.90;0.40;99936;;;;567209;249;24097;-78
2022/11/17 04:07:41;;;;;;;3.40;3.20;;;1.30;99.90;0.30;99930;;;;576054;247;24122;-76
2022/11/17 04:10:10;;;;;;;5.80;4.03;;;1.30;99.90;0.30;99929;;;;576452;247;24137;-76
2022/11/17 04:18:10;;;;;;;3.13;2.93;;;1.30;99.90;0.30;99925;;;;576969;247;24145;-76
2022/11/17 04:20:38;;;;;;;4.13;3.50;;;1.40;99.90;0.30;99932;;;;568576;249;24081;-77
2022/11/17 04:23:10;;;;;;;3.30;3.00;;;1.30;99.90;0.40;99930;;;;576795;247;24079;-76
2022/11/17 04:28:37;;;;;;;2.80;2.60;;;1.30;99.90;0.40;99928;;;;567723;249;24128;-77
2022/11/17 04:31:20;;;;;;;3.20;2.90;;;1.30;99.90;0.40;99923;;;;567716;249;24114;-77
2022/11/17 04:33:54;;;;;;;3.20;3.00;;;1.30;99.90;0.30;99925;;;;576601;246;24115;-77
2022/11/17 04:36:22;;;;;;;3.57;3.27;;;1.30;99.90;0.40;99925;;;;567507;249;24098;-77
2022/11/17 04:38:50;;;;;;;3.20;3.00;;;1.30;99.90;0.30;99925;;;;567658;249;24089;-77
2022/11/17 04:44:07;;;;;;;3.50;3.30;;;1.30;99.90;0.30;99943;;;;558050;253;24160;-77
2022/11/17 04:46:32;;;;;;;3.77;3.10;;;1.30;99.90;0.30;99938;;;;557429;253;24172;-77
2022/11/17 04:49:00;;;;;;;3.53;3.17;;;1.20;99.90;0.20;99925;;;;567541;249;24093;-77
2022/11/17 04:51:27;;;;;;;3.70;3.40;;;1.20;99.90;0.20;99930;;;;575878;249;24122;-77
2022/11/17 04:53:55;;;;;;;3.73;3.53;;;1.20;99.90;0.10;99928;;;;567176;249;24108;-76
2022/11/17 04:56:23;;;;;;;4.17;3.87;;;1.10;99.90;0.10;99931;;;;567431;249;25184;-78
2022/11/17 04:58:55;;;;;;;3.97;3.47;;;1.10;99.90;0.20;99922;;;;567318;249;24115;-74
2022/11/17 05:01:21;;;;;;;3.30;3.10;;;1.10;99.90;0.20;99921;;;;567316;249;24199;-77
2022/11/17 05:03:54;;;;;;;3.37;3.17;;;1.10;99.90;0.20;99930;;;;575990;247;24099;-75
2022/11/17 05:06:30;;;;;;;3.50;3.20;;;1.20;99.90;0.20;99929;;;;567388;249;24101;-77
2022/11/17 05:08:59;;;;;;;3.77;3.57;;;1.10;99.90;0.20;99927;;;;567257;249;24120;-77
2022/11/17 05:14:13;;;;;;;3.57;3.37;;;1.20;99.90;0.20;99905;;;;567350;249;24271;-79
2022/11/17 05:19:24;;;;;;;4.10;3.90;;;1.20;99.90;0.10;99912;;;;576298;248;24079;-77
2022/11/17 05:21:52;;;;;;;4.83;3.33;;;1.20;99.90;0.20;99913;;;;567554;249;24092;-76
2022/11/17 05:24:20;;;;;;;3.40;3.20;;;1.20;99.90;0.20;99904;;;;568346;248;24120;-78
2022/11/17 05:26:51;;;;;;;4.07;3.67;;;1.20;99.90;0.20;99914;;;;568986;248;24161;-77
2022/11/17 05:29:16;;;;;;;4.20;3.70;;;1.20;99.90;0.20;99909;;;;568197;249;24585;-77
2022/11/17 05:31:48;;;;;;;4.93;3.70;;;1.20;99.90;0.30;99924;;;;568337;249;24135;-77
2022/11/17 05:34:12;;;;;;;3.70;3.50;;;1.20;99.90;0.20;99903;;;;576501;249;24149;-76
2022/11/17 05:36:41;;;;;;;5.47;4.20;;;1.20;99.90;0.20;99914;;;;568114;249;24094;-77
2022/11/17 05:39:09;;;;;;;4.70;4.33;;;1.20;99.90;0.20;99916;;;;568227;249;24120;-78
2022/11/17 05:41:37;;;;;;;4.20;3.90;;;1.20;99.90;0.20;99924;;;;558229;253;24167;-77
2022/11/17 05:44:05;;;;;;;5.67;3.50;;;1.20;99.90;0.20;99921;;;;558075;253;24193;-77
2022/11/17 05:46:33;;;;;;;5.93;4.07;;;1.20;99.90;0.20;99921;;;;560224;253;24094;-78
2022/11/17 05:49:01;;;;;;;4.93;4.00;;;1.20;99.90;0.20;99926;;;;558084;253;24136;-77
2022/11/17 05:51:31;;;;;;;3.63;3.33;;;1.20;99.90;0.20;99934;;;;558143;253;24126;-80
2022/11/17 05:53:57;;;;;;;3.90;3.50;;;1.10;99.90;0.10;99940;;;;557996;253;24135;-77
2022/11/17 05:56:33;;;;;;;3.67;3.37;;;1.10;99.90;0.10;99936;;;;558033;253;24176;-77
2022/11/17 05:59:16;;;;;;;7.50;3.60;;;1.10;99.90;0.10;99929;;;;558062;253;24117;-80
2022/11/17 06:01:57;;;;;;;9.20;7.20;;;1.10;99.90;0.10;99930;;;;566538;253;26321;-79
2022/11/17 06:04:28;;;;;;;4.20;3.80;;;1.10;99.90;0.10;99933;;;;556197;254;24147;-80
2022/11/17 06:06:53;;;;;;;3.27;2.97;;;1.10;99.90;0.20;99934;;;;555692;253;24135;-79
2022/11/17 06:09:20;;;;;;;4.17;3.40;;;1.10;99.90;0.10;99926;;;;557331;253;24179;-79
2022/11/17 06:11:48;;;;;;;5.50;3.90;;;1.10;99.90;0.10;99934;;;;557587;253;24176;-76
2022/11/17 06:14:16;;;;;;;6.77;3.80;;;1.10;99.90;0.00;99933;;;;565225;252;24182;-80
2022/11/17 06:16:47;;;;;;;3.95;3.65;;;1.00;99.90;0.10;99941;;;;552706;253;46394;-77
2022/11/17 06:19:21;;;;;;;6.63;4.07;;;1.00;99.90;0.10;99941;;;;557198;253;24187;-79
2022/11/17 06:21:49;;;;;;;3.90;3.50;;;1.10;99.90;0.00;99935;;;;567656;249;24094;-77
2022/11/17 06:24:17;;;;;;;3.67;3.37;;;1.00;99.90;0.00;99938;;;;559630;253;24169;-80
2022/11/17 06:26:45;;;;;;;3.57;3.27;;;1.00;99.90;0.00;99941;;;;557481;253;24123;-75
2022/11/17 06:29:13;;;;;;;3.50;3.30;;;1.00;99.90;0.10;99937;;;;567428;249;24257;-78
2022/11/17 06:31:42;;;;;;;5.07;3.57;;;1.00;99.90;0.00;99945;;;;559738;253;24187;-77
2022/11/17 06:34:10;;;;;;;5.93;4.60;;;1.00;99.90;0.00;99942;;;;557438;253;24122;-78
2022/11/17 06:36:38;;;;;;;5.30;4.80;;;1.00;99.90;0.00;99945;;;;558968;253;24130;-77
2022/11/17 06:39:06;;;;;;;11.07;5.07;;;1.00;99.90;0.10;99943;;;;558827;253;24145;-78
2022/11/17 06:41:34;;;;;;;9.97;5.13;;;1.10;99.90;0.10;99940;;;;558813;253;24139;-81
2022/11/17 06:44:02;;;;;;;10.03;5.23;;;1.10;99.90;0.10;99935;;;;558856;253;24199;-84
2022/11/17 06:46:36;;;;;;;7.57;5.20;;;1.10;99.90;0.10;99946;;;;558721;253;24133;-85
2022/11/17 06:48:58;;;;;;;5.63;5.10;;;1.20;99.90;0.10;99935;;;;558448;253;24176;-83
2022/11/17 06:51:26;;;;;;;7.33;5.10;;;1.10;99.90;0.10;99937;;;;558762;253;24245;-81
2022/11/17 06:53:54;;;;;;;6.03;5.27;;;1.10;99.90;0.20;99933;;;;558553;253;24108;-80
2022/11/17 06:56:22;;;;;;;6.73;4.83;;;1.20;99.90;0.20;99930;;;;558400;253;24173;-76
2022/11/17 06:58:49;;;;;;;4.70;4.10;;;1.20;99.90;0.20;99937;;;;558292;253;24149;-80
2022/11/17 07:01:17;;;;;;;8.00;5.20;;;1.20;99.90;0.20;99942;;;;558308;253;24120;-83
2022/11/17 07:03:46;;;;;;;6.43;5.83;;;1.30;99.90;0.20;99934;;;;558403;253;24137;-83
2022/11/17 07:06:15;;;;;;;5.47;5.07;;;1.20;99.90;0.30;99930;;;;558290;253;24114;-83
2022/11/17 07:08:45;;;;;;;8.10;5.93;;;1.30;99.90;0.20;99929;;;;558132;253;24159;-86
2022/11/17 07:11:10;;;;;;;6.87;5.43;;;1.20;99.90;0.20;99927;;;;576741;249;24088;-81
2022/11/17 07:13:38;;;;;;;4.47;4.07;;;1.20;99.90;0.20;99925;;;;557567;253;24131;-79
2022/11/17 07:16:06;;;;;;;4.17;3.77;;;1.30;99.90;0.30;99933;;;;565600;252;24127;-79
2022/11/17 07:18:34;;;;;;;4.10;3.80;;;1.20;99.90;0.30;99921;;;;557730;253;24176;-79
2022/11/17 07:21:05;;;;;;;4.20;3.83;;;1.30;99.90;0.30;99920;;;;557797;253;24203;-78
2022/11/17 07:23:33;;;;;;;4.63;3.80;;;1.30;99.90;0.20;99925;;;;557762;253;24102;-76
2022/11/17 07:26:01;;;;;;;4.10;3.80;;;1.20;99.90;0.20;99925;;;;557861;253;24134;-77
2022/11/17 07:28:29;;;;;;;5.93;3.92;;;1.20;99.90;0.20;99933;;;;552945;253;35439;-81
2022/11/17 07:30:57;;;;;;;4.13;3.63;;;1.30;99.90;0.30;99933;;;;557845;253;24156;-78
2022/11/17 07:33:25;;;;;;;4.03;3.60;;;1.30;99.90;0.30;99933;;;;555747;254;24088;-80
2022/11/17 07:35:54;;;;;;;5.90;3.87;;;1.30;99.90;0.40;99943;;;;567825;249;24138;-80
2022/11/17 07:38:21;;;;;;;3.20;2.93;;;1.30;99.90;0.40;99941;;;;567791;249;24086;-83
2022/11/17 07:40:49;;;;;;;4.33;3.70;;;1.40;99.90;0.40;99937;;;;567751;249;24083;-81
2022/11/17 07:43:17;;;;;;;3.97;3.23;;;1.30;99.90;0.40;99938;;;;567798;249;24169;-77
2022/11/17 07:45:45;;;;;;;6.33;4.00;;;1.30;99.90;0.30;99941;;;;576389;247;24105;-77
2022/11/17 07:48:15;;;;;;;10.27;6.70;;;1.30;99.90;0.30;99936;;;;577415;247;24214;-76
2022/11/17 07:50:40;;;;;;;6.70;5.03;;;1.30;99.90;0.40;99937;;;;577223;248;24093;-78
2022/11/17 07:53:08;;;;;;;4.77;3.93;;;1.40;99.90;0.40;99934;;;;577227;247;24155;-78
2022/11/17 07:55:36;;;;;;;4.70;4.17;;;1.40;99.90;0.40;99930;;;;577231;247;24177;-80
2022/11/17 07:58:05;;;;;;;6.47;4.20;;;1.40;99.90;0.40;99934;;;;576950;247;24104;-76
2022/11/17 08:00:33;;;;;;;9.10;5.30;;;1.30;99.90;0.40;99936;;;;576845;247;24125;-75
2022/11/17 08:03:05;;;;;;;14.53;6.70;;;1.40;99.90;0.40;99938;;;;576854;247;24086;-76
2022/11/17 08:05:29;;;;;;;11.27;6.20;;;1.40;99.90;0.40;99927;;;;567835;249;24094;-77
2022/11/17 08:07:56;;;;;;;8.10;5.00;;;1.40;99.90;0.50;99924;;;;576479;249;24103;-79
2022/11/17 08:10:32;;;;;;;7.03;5.03;;;1.40;99.90;0.40;99923;;;;567991;249;24141;-76
2022/11/17 08:12:57;;;;;;;5.47;4.40;;;1.40;99.90;0.50;99922;;;;575956;249;24133;-76
2022/11/17 08:15:25;;;;;;;8.83;4.80;;;1.40;99.90;0.40;99922;;;;576166;247;24086;-75
2022/11/17 08:17:55;;;;;;;5.67;4.90;;;1.40;99.90;0.40;99909;;;;576146;247;24117;-76
2022/11/17 08:20:24;;;;;;;15.53;7.37;;;1.40;99.90;0.40;99926;;;;567051;249;24118;-76
2022/11/17 08:22:52;;;;;;;6.33;4.87;;;1.40;99.90;0.40;99926;;;;569761;249;24204;-77
2022/11/17 08:25:23;;;;;;;7.47;5.77;;;1.40;99.90;0.40;99929;;;;567433;249;24158;-77
2022/11/17 08:27:50;;;;;;;9.43;5.17;;;1.40;99.90;0.40;99928;;;;567102;249;24190;-75
2022/11/17 08:30:16;;;;;;;6.93;5.70;;;1.40;99.90;0.40;99920;;;;567048;249;25180;-78
2022/11/17 08:32:50;;;;;;;6.27;5.67;;;1.40;99.90;0.50;99925;;;;573359;249;24153;-76
2022/11/17 08:35:17;;;;;;;7.13;5.60;;;1.50;99.90;0.50;99935;;;;566950;249;24098;-76
2022/11/17 08:37:43;;;;;;;6.77;4.87;;;1.70;99.90;0.60;99935;;;;567118;249;24133;-76
2022/11/17 08:40:11;;;;;;;5.13;4.70;;;1.50;99.90;0.60;99934;;;;575987;247;24129;-76
2022/11/17 08:42:39;;;;;;;9.07;6.30;;;1.60;99.90;0.60;99938;;;;567082;249;24091;-75
2022/11/17 08:45:07;;;;;;;13.03;7.97;;;1.60;99.90;0.70;99943;;;;576037;247;24101;-74
2022/11/17 08:47:35;;;;;;;8.53;7.63;;;1.60;99.90;0.70;99948;;;;567256;249;24137;-76
2022/11/17 08:50:03;;;;;;;10.77;8.63;;;1.70;99.90;0.70;99936;;;;575994;249;24089;-76
2022/11/17 08:52:31;;;;;;;6.07;5.00;;;1.70;99.90;0.80;99946;;;;567145;249;24149;-76
2022/11/17 08:54:59;;;;;;;10.87;5.43;;;1.70;99.90;0.80;99942;;;;575986;248;24219;-76
2022/11/17 08:57:27;;;;;;;4.63;4.23;;;1.70;99.90;0.80;99937;;;;576041;247;24160;-75
2022/11/17 08:59:55;;;;;;;4.80;4.07;;;1.80;99.90;0.80;99941;;;;568386;248;24211;-77
2022/11/17 09:02:26;;;;;;;7.77;5.17;;;1.80;99.90;0.90;99935;;;;577135;247;24072;-77
2022/11/17 09:04:51;;;;;;;10.07;5.60;;;1.80;99.90;0.90;99945;;;;576259;249;24126;-80
2022/11/17 09:07:22;;;;;;;6.60;5.40;;;1.90;99.90;1.00;99941;;;;576801;247;24112;-80
2022/11/17 09:09:47;;;;;;;5.20;4.80;;;1.90;99.90;1.00;99935;;;;576184;249;24137;-82
2022/11/17 09:12:14;;;;;;;5.10;4.60;;;2.00;99.90;1.00;99938;;;;576618;249;24096;-78
2022/11/17 09:14:42;;;;;;;4.80;4.20;;;2.00;99.90;1.10;99939;;;;557990;250;24166;-77
2022/11/17 09:17:10;;;;;;;5.20;4.73;;;2.00;99.90;1.10;99935;;;;558261;253;24156;-77
2022/11/17 09:19:38;;;;;;;5.57;5.13;;;2.10;99.90;1.20;99934;;;;558032;253;25158;-80
2022/11/17 09:22:06;;;;;;;5.30;4.80;;;2.10;99.90;1.20;99933;;;;558013;253;24113;-76
2022/11/17 09:24:34;;;;;;;4.90;4.47;;;2.10;99.90;1.30;99937;;;;558085;253;24153;-80
2022/11/17 09:27:02;;;;;;;4.50;4.20;;;2.20;99.90;1.30;99931;;;;565068;252;24102;-77
2022/11/17 09:29:30;;;;;;;4.70;4.30;;;2.20;99.90;1.40;99929;;;;576778;249;24149;-77
2022/11/17 09:31:58;;;;;;;6.00;5.13;;;2.30;99.90;1.40;99931;;;;568327;249;24085;-76
2022/11/17 09:34:26;;;;;;;5.13;4.63;;;2.40;99.90;1.50;99919;;;;576911;247;24082;-75
2022/11/17 09:36:53;;;;;;;7.63;5.30;;;2.50;99.90;1.50;99917;;;;576456;247;24141;-75
2022/11/17 09:39:21;;;;;;;5.80;4.93;;;2.50;99.90;1.70;99918;;;;576448;247;24137;-76
2022/11/17 09:41:52;;;;;;;6.47;5.87;;;2.70;99.90;2.00;99918;;;;576491;247;24083;-75
2022/11/17 09:44:33;;;;;;;8.57;4.70;;;2.90;99.90;2.10;99926;;;;567512;249;24161;-83
2022/11/17 09:47:12;;;;;;;5.23;4.70;;;3.00;99.90;2.20;99905;;;;576250;249;24120;-76
2022/11/17 09:50:04;;;;;;;7.03;4.90;;;3.10;99.90;2.20;99909;;;;576298;246;24147;-78
2022/11/17 09:52:53;;;;;;;5.20;4.80;;;3.20;99.90;2.20;99904;;;;575808;249;24331;-77
2022/11/17 09:55:36;;;;;;;5.83;4.00;;;3.20;99.90;2.30;99913;;;;574272;249;24165;-76
2022/11/17 09:58:06;;;;;;;5.27;4.77;;;3.20;99.90;2.20;99900;;;;576370;247;24093;-80
2022/11/17 10:00:34;;;;;;;11.53;5.53;;;3.20;99.90;2.40;99890;;;;572294;249;24099;-79
2022/11/17 10:03:02;;;;;;;7.87;5.13;;;3.30;99.90;2.50;99891;;;;567730;249;24089;-79
2022/11/17 10:05:30;;;;;;;5.23;4.23;;;3.40;99.90;2.60;99878;;;;575354;249;24150;-75
2022/11/17 10:08:02;;;;;;;5.63;4.63;;;3.50;99.90;2.70;99884;;;;567613;249;24094;-75
2022/11/17 10:10:35;;;;;;;4.33;3.93;;;3.60;99.90;2.70;99890;;;;567471;248;24168;-76
2022/11/17 10:13:03;;;;;;;3.47;3.27;;;3.70;99.90;2.70;99879;;;;568457;248;24098;-77
2022/11/17 10:15:46;;;;;;;2.63;2.07;;;3.70;99.90;2.70;99895;;;;568500;249;24140;-76
2022/11/17 10:18:14;;;;;;;5.33;2.43;;;3.70;99.90;2.50;99878;;;;568178;249;25176;-77
2022/11/17 10:20:46;;;;;;;11.20;4.87;;;3.50;99.90;2.20;99872;;;;568160;249;24109;-76
2022/11/17 10:23:13;;;;;;;15.50;5.10;;;3.30;99.90;2.10;99871;;;;567855;249;24153;-76
2022/11/17 10:25:41;;;;;;;5.20;4.73;;;3.10;99.90;1.90;99870;;;;568137;249;24156;-76
2022/11/17 10:28:09;;;;;;;6.30;4.63;;;2.80;99.90;1.80;99874;;;;568084;249;24114;-76
2022/11/17 10:30:37;;;;;;;7.23;4.67;;;2.80;99.90;1.60;99874;;;;566666;249;24090;-77
2022/11/17 10:33:06;;;;;;;5.07;4.57;;;2.50;99.90;1.50;99868;;;;576591;247;24148;-76
2022/11/17 10:35:37;;;;;;;5.53;5.03;;;2.50;99.90;1.40;99869;;;;576651;247;24148;-78
2022/11/17 10:38:08;;;;;;;7.40;5.43;;;2.40;99.90;1.30;99869;;;;567470;249;24158;-83
2022/11/17 10:40:39;;;;;;;10.17;5.20;;;2.30;99.90;1.20;99872;;;;567642;249;24106;-76
2022/11/17 10:43:13;;;;;;;5.03;4.63;;;2.20;99.90;1.10;99868;;;;576566;247;24093;-79
2022/11/17 10:45:49;;;;;;;7.07;6.37;;;2.10;99.90;0.90;99870;;;;576477;249;24156;-76
2022/11/17 10:48:32;;;;;;;7.17;5.53;;;1.90;99.90;0.80;99871;;;;567703;249;24082;-80
2022/11/17 10:51:03;;;;;;;7.47;5.97;;;1.80;99.90;0.60;99862;;;;576283;248;24187;-77
2022/11/17 10:53:38;;;;;;;7.03;6.30;;;1.50;99.90;0.50;99860;;;;567739;249;24149;-77
2022/11/17 10:56:17;;;;;;;12.70;9.07;;;1.50;99.90;0.50;99854;;;;567795;249;24150;-80
2022/11/17 10:59:09;;;;;;;10.03;7.13;;;1.50;99.90;0.40;99865;;;;576364;247;24079;-78
2022/11/17 11:01:37;;;;;;;10.70;8.80;;;1.40;99.90;0.40;99854;;;;577106;246;25143;-80
2022/11/17 11:04:05;;;;;;;9.13;6.83;;;1.40;99.90;0.40;99856;;;;567509;249;24103;-83
2022/11/17 11:06:33;;;;;;;6.73;6.10;;;1.30;99.90;0.30;99851;;;;567704;249;24083;-87
2022/11/17 11:09:00;;;;;;;8.30;6.50;;;1.30;99.90;0.40;99850;;;;567764;249;24106;-81
2022/11/17 11:11:40;;;;;;;28.43;8.10;;;1.30;99.90;0.40;99848;;;;567493;249;24109;-83
2022/11/17 11:14:39;;;;;;;10.07;6.33;;;1.40;99.90;0.40;99847;;;;576066;247;24176;-78
2022/11/17 11:17:13;;;;;;;6.40;5.30;;;1.40;99.90;0.50;99844;;;;567062;249;24232;-78
2022/11/17 11:19:42;;;;;;;7.13;5.40;;;1.50;99.90;0.50;99846;;;;567228;249;24086;-80
2022/11/17 11:22:21;;;;;;;10.00;5.63;;;1.50;99.90;0.60;99846;;;;567968;248;24087;-80
2022/11/17 11:25:27;;;;;;;6.60;5.67;;;1.50;99.90;0.70;99852;;;;568720;248;24099;-79
2022/11/17 11:27:55;;;;;;;6.67;5.47;;;1.60;99.90;0.80;99854;;;;576943;247;24107;-78
2022/11/17 11:30:22;;;;;;;6.87;5.80;;;1.70;99.90;0.80;99839;;;;576842;249;24129;-77
2022/11/17 11:33:14;;;;;;;6.80;6.10;;;1.70;99.90;0.80;99831;;;;576625;247;24140;-77
2022/11/17 11:36:18;;;;;;;5.90;5.30;;;1.70;99.90;0.70;99836;;;;576632;246;24132;-77
2022/11/17 11:39:10;;;;;;;6.47;5.53;;;1.70;99.90;0.70;99826;;;;570493;250;24113;-76
2022/11/17 11:42:21;;;;;;;10.07;5.73;;;1.70;99.90;0.70;99818;;;;569546;249;24090;-77
2022/11/17 11:44:58;;;;;;;8.90;7.60;;;1.60;99.90;0.70;99820;;;;559468;257;24144;-79
2022/11/17 11:47:53;;;;;;;11.17;9.03;;;1.60;99.90;0.70;99813;;;;564511;254;25167;-77
2022/11/17 11:50:23;;;;;;;8.30;7.50;;;1.60;99.90;0.70;99817;;;;557597;253;24097;-77
2022/11/17 11:52:51;;;;;;;8.00;6.53;;;1.60;99.90;0.70;99810;;;;565661;252;24148;-75
2022/11/17 11:55:31;;;;;;;10.07;6.13;;;1.60;99.90;0.70;99818;;;;555638;254;24177;-77
2022/11/17 11:58:14;;;;;;;6.67;6.07;;;1.60;99.90;0.60;99807;;;;576310;249;24094;-76
2022/11/17 12:00:42;;;;;;;8.70;6.67;;;1.60;99.90;0.70;99808;;;;567387;249;24140;-79
2022/11/17 12:03:25;;;;;;;7.97;6.57;;;1.60;99.90;0.60;99793;;;;567637;249;24186;-80
2022/11/17 12:06:39;;;;;;;10.13;6.73;;;1.60;99.90;0.60;99798;;;;567949;249;24137;-79
2022/11/17 12:08:29;;;;;;;9.90;6.57;;;1.60;99.90;0.60;99797;;;;566428;249;24106;-78
2022/11/17 12:13:34;;;;;;;7.70;6.87;;;1.50;99.90;0.60;99797;;;;565206;249;24095;-77
2022/11/17 12:16:20;;;;;;;9.87;7.70;;;1.60;99.90;0.70;99793;;;;567954;249;24125;-79
2022/11/17 12:18:48;;;;;;;7.33;6.73;;;1.60;99.90;0.70;99796;;;;566884;249;24107;-77
2022/11/17 12:21:21;;;;;;;8.63;6.63;;;1.60;99.90;0.70;99794;;;;567803;249;25137;-80